createdAt,value
2022-10-01T00:00:05.503Z,5.70
2022-10-01T00:02:32.217Z,5.70
2022-10-01T00:04:58.904Z,5.70
2022-10-01T00:07:26.120Z,5.80
2022-10-01T00:09:52.715Z,5.80
2022-10-01T00:12:19.346Z,5.90
2022-10-01T00:14:45.954Z,5.90
2022-10-01T00:17:12.566Z,6.00
2022-10-01T00:19:39.155Z,6.00
2022-10-01T00:22:05.732Z,6.00
2022-10-01T00:24:32.386Z,6.00
2022-10-01T00:26:59.000Z,6.00
2022-10-01T00:29:25.701Z,6.00
2022-10-01T00:31:52.435Z,6.00
2022-10-01T00:34:19.115Z,6.00
2022-10-01T00:36:45.811Z,6.00
2022-10-01T00:39:12.550Z,5.90
2022-10-01T00:41:39.268Z,5.90
2022-10-01T00:44:44.555Z,5.80
2022-10-01T00:47:17.076Z,5.70
2022-10-01T00:49:43.887Z,5.70
2022-10-01T00:52:13.787Z,5.60
2022-10-01T00:54:52.814Z,5.50
2022-10-01T00:57:21.885Z,5.50
2022-10-01T00:59:49.728Z,5.50
2022-10-01T01:02:16.412Z,5.40
2022-10-01T01:04:43.136Z,5.40
2022-10-01T01:07:09.860Z,5.30
2022-10-01T01:09:38.279Z,5.30
2022-10-01T01:12:14.197Z,5.30
2022-10-01T01:14:49.900Z,5.30
2022-10-01T01:17:23.389Z,5.20
2022-10-01T01:19:56.045Z,5.10
2022-10-01T01:22:24.502Z,5.10
2022-10-01T01:24:56.081Z,5.00
2022-10-01T01:27:22.666Z,5.00
2022-10-01T01:29:49.588Z,4.90
2022-10-01T01:32:20.267Z,4.90
2022-10-01T01:34:48.759Z,4.90
2022-10-01T01:37:17.544Z,4.90
2022-10-01T01:39:46.176Z,4.80
2022-10-01T01:42:45.270Z,4.80
2022-10-01T01:45:15.901Z,4.80
2022-10-01T01:47:43.696Z,4.80
2022-10-01T01:50:12.484Z,4.80
2022-10-01T01:52:39.156Z,4.70
2022-10-01T01:55:07.422Z,4.70
2022-10-01T01:57:36.702Z,4.70
2022-10-01T02:00:04.043Z,4.70
2022-10-01T02:02:33.206Z,4.60
2022-10-01T02:05:02.013Z,4.50
2022-10-01T02:07:31.651Z,4.70
2022-10-01T02:09:58.199Z,4.70
2022-10-01T02:12:30.594Z,4.70
2022-10-01T02:15:05.286Z,4.70
2022-10-01T02:17:34.703Z,4.70
2022-10-01T02:20:03.598Z,4.70
2022-10-01T02:22:41.309Z,4.80
2022-10-01T02:25:09.217Z,4.80
2022-10-01T02:27:41.141Z,4.80
2022-10-01T02:30:09.503Z,4.80
2022-10-01T02:32:37.725Z,4.70
2022-10-01T02:35:05.786Z,4.90
2022-10-01T02:37:33.585Z,4.70
2022-10-01T02:40:01.263Z,4.60
2022-10-01T02:42:29.132Z,4.60
2022-10-01T02:44:56.827Z,4.60
2022-10-01T02:47:34.214Z,4.70
2022-10-01T02:50:01.646Z,4.60
2022-10-01T02:52:38.558Z,4.70
2022-10-01T02:55:09.120Z,4.70
2022-10-01T02:57:36.206Z,4.70
2022-10-01T03:00:06.521Z,4.70
2022-10-01T03:02:33.301Z,4.70
2022-10-01T03:05:00.110Z,4.70
2022-10-01T03:07:27.251Z,4.80
2022-10-01T03:09:54.067Z,4.70
2022-10-01T03:12:20.887Z,4.80
2022-10-01T03:14:47.743Z,4.80
2022-10-01T03:17:15.044Z,4.80
2022-10-01T03:19:41.722Z,4.90
2022-10-01T03:22:08.659Z,4.90
2022-10-01T03:24:35.419Z,5.00
2022-10-01T03:27:02.058Z,5.00
2022-10-01T03:29:28.709Z,5.00
2022-10-01T03:31:55.573Z,5.00
2022-10-01T03:34:22.651Z,5.00
2022-10-01T03:36:50.013Z,5.00
2022-10-01T03:39:16.765Z,5.00
2022-10-01T03:41:44.062Z,5.00
2022-10-01T03:44:10.716Z,5.00
2022-10-01T03:46:37.427Z,5.10
2022-10-01T03:49:04.048Z,5.10
2022-10-01T03:51:31.315Z,5.10
2022-10-01T03:53:58.418Z,5.00
2022-10-01T03:56:25.415Z,5.00
2022-10-01T03:58:52.026Z,5.10
2022-10-01T04:01:18.738Z,5.00
2022-10-01T04:03:45.554Z,5.10
2022-10-01T04:06:12.375Z,5.00
2022-10-01T04:08:39.008Z,5.10
2022-10-01T04:11:06.159Z,5.10
2022-10-01T04:13:33.106Z,5.10
2022-10-01T04:15:59.791Z,5.10
2022-10-01T04:18:26.547Z,5.10
2022-10-01T04:20:53.127Z,5.20
2022-10-01T04:23:19.710Z,5.20
2022-10-01T04:25:46.332Z,5.20
2022-10-01T04:28:13.422Z,5.20
2022-10-01T04:30:41.202Z,5.20
2022-10-01T04:33:07.921Z,5.20
2022-10-01T04:35:34.536Z,5.30
2022-10-01T04:38:03.401Z,5.20
2022-10-01T04:40:34.479Z,5.30
2022-10-01T04:43:01.448Z,5.20
2022-10-01T04:45:28.277Z,5.30
2022-10-01T04:47:55.444Z,5.30
2022-10-01T04:50:23.040Z,5.20
2022-10-01T04:52:50.138Z,5.20
2022-10-01T04:55:17.581Z,5.20
2022-10-01T04:57:44.351Z,5.20
2022-10-01T05:00:12.517Z,5.20
2022-10-01T05:02:39.139Z,5.10
2022-10-01T05:05:06.811Z,5.20
2022-10-01T05:07:34.167Z,5.10
2022-10-01T05:10:01.154Z,5.20
2022-10-01T05:12:28.676Z,5.10
2022-10-01T05:14:55.788Z,5.10
2022-10-01T05:17:22.665Z,5.10
2022-10-01T05:19:49.934Z,5.10
2022-10-01T05:22:16.645Z,5.20
2022-10-01T05:24:46.428Z,5.10
2022-10-01T05:27:13.335Z,5.20
2022-10-01T05:29:41.420Z,5.20
2022-10-01T05:32:08.510Z,5.20
2022-10-01T05:34:35.275Z,5.30
2022-10-01T05:37:02.852Z,5.30
2022-10-01T05:39:29.784Z,5.30
2022-10-01T05:42:03.892Z,5.30
2022-10-01T05:44:37.797Z,5.40
2022-10-01T05:47:05.866Z,5.40
2022-10-01T05:49:33.404Z,5.50
2022-10-01T05:52:01.096Z,5.50
2022-10-01T05:54:29.495Z,5.50
2022-10-01T05:56:59.179Z,5.60
2022-10-01T05:59:29.723Z,5.70
2022-10-01T06:01:58.394Z,5.70
2022-10-01T06:04:25.090Z,5.80
2022-10-01T06:06:52.998Z,5.80
2022-10-01T06:09:19.601Z,5.90
2022-10-01T06:11:47.705Z,6.00
2022-10-01T06:14:14.468Z,6.10
2022-10-01T06:16:41.260Z,6.10
2022-10-01T06:19:07.980Z,6.20
2022-10-01T06:21:35.871Z,6.20
2022-10-01T06:24:02.850Z,6.20
2022-10-01T06:26:29.489Z,6.30
2022-10-01T06:28:56.629Z,6.40
2022-10-01T06:31:23.409Z,6.40
2022-10-01T06:33:50.173Z,6.60
2022-10-01T06:36:16.853Z,6.60
2022-10-01T06:38:43.712Z,6.70
2022-10-01T06:41:10.657Z,6.80
2022-10-01T06:43:37.309Z,6.70
2022-10-01T06:46:04.997Z,6.90
2022-10-01T06:48:32.477Z,7.00
2022-10-01T06:50:59.533Z,7.00
2022-10-01T06:53:27.360Z,6.90
2022-10-01T06:55:54.477Z,6.90
2022-10-01T06:58:21.966Z,6.90
2022-10-01T07:00:49.502Z,7.00
2022-10-01T07:03:17.504Z,7.00
2022-10-01T07:05:44.301Z,7.10
2022-10-01T07:08:10.931Z,7.20
2022-10-01T07:10:38.354Z,7.30
2022-10-01T07:13:08.202Z,7.30
2022-10-01T07:15:34.840Z,7.30
2022-10-01T07:18:01.808Z,7.40
2022-10-01T07:20:28.525Z,7.40
2022-10-01T07:22:58.868Z,7.60
2022-10-01T07:25:26.099Z,7.70
2022-10-01T07:28:00.215Z,7.80
2022-10-01T07:30:27.434Z,7.80
2022-10-01T07:32:54.395Z,7.90
2022-10-01T07:35:21.114Z,7.90
2022-10-01T07:37:48.364Z,8.00
2022-10-01T07:40:18.462Z,8.10
2022-10-01T07:42:54.756Z,8.30
2022-10-01T07:45:22.510Z,8.40
2022-10-01T07:47:59.662Z,8.60
2022-10-01T07:50:26.788Z,8.80
2022-10-01T07:52:57.265Z,8.90
2022-10-01T07:55:26.451Z,9.10
2022-10-01T07:58:02.084Z,9.20
2022-10-01T08:00:30.107Z,9.20
2022-10-01T08:02:57.033Z,9.30
2022-10-01T08:05:25.524Z,9.30
2022-10-01T08:07:52.533Z,9.40
2022-10-01T08:10:19.655Z,9.40
2022-10-01T08:12:46.581Z,9.50
2022-10-01T08:15:14.673Z,9.70
2022-10-01T08:17:41.665Z,9.70
2022-10-01T08:20:09.342Z,9.70
2022-10-01T08:22:41.100Z,9.70
2022-10-01T08:25:08.770Z,9.70
2022-10-01T08:27:35.427Z,9.80
2022-10-01T08:30:02.112Z,9.90
2022-10-01T08:32:28.943Z,9.90
2022-10-01T08:34:57.525Z,9.90
2022-10-01T08:37:25.457Z,10.00
2022-10-01T08:39:52.084Z,10.00
2022-10-01T08:42:37.115Z,10.00
2022-10-01T08:45:12.621Z,10.10
2022-10-01T08:47:40.521Z,10.20
2022-10-01T08:50:27.386Z,10.10
2022-10-01T08:52:57.689Z,10.20
2022-10-01T08:55:26.219Z,10.20
2022-10-01T08:58:00.355Z,10.30
2022-10-01T09:00:27.279Z,10.50
2022-10-01T09:02:54.102Z,10.60
2022-10-01T09:05:36.045Z,10.70
2022-10-01T09:08:21.462Z,10.80
2022-10-01T09:10:52.699Z,11.00
2022-10-01T09:13:31.223Z,11.10
2022-10-01T09:16:18.152Z,11.20
2022-10-01T09:18:57.940Z,11.30
2022-10-01T09:21:28.026Z,11.30
2022-10-01T09:24:04.878Z,11.30
2022-10-01T09:26:31.961Z,11.30
2022-10-01T09:29:01.059Z,11.30
2022-10-01T09:31:30.401Z,11.40
2022-10-01T09:34:12.070Z,11.60
2022-10-01T09:36:44.457Z,11.60
2022-10-01T09:39:24.023Z,11.60
2022-10-01T09:41:50.844Z,11.60
2022-10-01T09:44:26.605Z,11.60
2022-10-01T09:46:53.582Z,11.50
2022-10-01T09:49:31.598Z,11.50
2022-10-01T09:52:02.624Z,11.60
2022-10-01T09:54:44.806Z,11.50
2022-10-01T09:57:22.668Z,11.50
2022-10-01T09:59:53.103Z,11.50
2022-10-01T10:02:23.783Z,11.40
2022-10-01T10:05:04.245Z,11.50
2022-10-01T10:07:34.698Z,11.40
2022-10-01T10:10:16.402Z,11.40
2022-10-01T10:12:44.119Z,11.40
2022-10-01T10:15:16.559Z,11.30
2022-10-01T10:17:44.206Z,11.40
2022-10-01T10:20:13.206Z,11.30
2022-10-01T10:22:39.857Z,11.50
2022-10-01T10:25:20.306Z,11.50
2022-10-01T10:27:54.984Z,11.50
2022-10-01T10:30:24.295Z,11.40
2022-10-01T10:32:51.439Z,11.40
2022-10-01T10:35:22.638Z,11.20
2022-10-01T10:37:50.681Z,11.20
2022-10-01T10:40:29.736Z,11.20
2022-10-01T10:42:57.538Z,11.20
2022-10-01T10:45:33.168Z,11.20
2022-10-01T10:48:01.265Z,11.20
2022-10-01T10:50:36.632Z,11.10
2022-10-01T10:53:24.215Z,11.00
2022-10-01T10:56:01.217Z,11.00
2022-10-01T10:58:33.167Z,11.10
2022-10-01T11:01:02.188Z,11.10
2022-10-01T11:03:30.770Z,11.10
2022-10-01T11:06:02.610Z,11.20
2022-10-01T11:08:29.281Z,11.10
2022-10-01T11:11:02.231Z,11.30
2022-10-01T11:13:49.586Z,11.40
2022-10-01T11:16:25.571Z,11.50
2022-10-01T11:19:11.321Z,11.60
2022-10-01T11:21:46.782Z,11.70
2022-10-01T11:24:16.122Z,11.70
2022-10-01T11:26:51.665Z,11.70
2022-10-01T11:29:32.194Z,11.80
2022-10-01T11:32:19.310Z,11.80
2022-10-01T11:34:48.688Z,11.80
2022-10-01T11:37:28.416Z,12.10
2022-10-01T11:39:56.474Z,12.20
2022-10-01T11:42:27.772Z,12.30
2022-10-01T11:45:00.831Z,12.30
2022-10-01T11:47:30.668Z,12.20
2022-10-01T11:49:57.335Z,12.10
2022-10-01T11:52:36.075Z,12.00
2022-10-01T11:55:24.277Z,12.00
2022-10-01T11:58:14.255Z,12.00
2022-10-01T12:00:44.099Z,12.00
2022-10-01T12:03:15.777Z,12.00
2022-10-01T12:05:43.001Z,12.00
2022-10-01T12:08:24.260Z,12.00
2022-10-01T12:10:54.959Z,12.00
2022-10-01T12:13:32.723Z,12.10
2022-10-01T12:15:59.318Z,12.10
2022-10-01T12:18:44.501Z,12.10
2022-10-01T12:21:20.122Z,12.10
2022-10-01T12:23:56.429Z,12.10
2022-10-01T12:26:32.437Z,12.10
2022-10-01T12:29:02.373Z,12.20
2022-10-01T12:31:33.484Z,12.20
2022-10-01T12:34:00.177Z,12.30
2022-10-01T12:36:53.272Z,12.30
2022-10-01T12:39:25.976Z,12.40
2022-10-01T12:42:15.730Z,12.40
2022-10-01T12:44:57.433Z,12.50
2022-10-01T12:47:28.496Z,12.60
2022-10-01T12:50:15.358Z,12.70
2022-10-01T12:52:50.900Z,12.70
2022-10-01T12:55:22.496Z,12.70
2022-10-01T12:58:15.629Z,12.60
2022-10-01T13:00:48.446Z,12.80
2022-10-01T13:03:29.545Z,12.90
2022-10-01T13:05:56.213Z,12.80
2022-10-01T13:08:41.661Z,13.00
2022-10-01T13:11:08.283Z,13.00
2022-10-01T13:13:34.948Z,13.00
2022-10-01T13:16:20.712Z,13.00
2022-10-01T13:18:57.859Z,13.10
2022-10-01T13:21:32.422Z,13.20
2022-10-01T13:24:03.048Z,13.50
2022-10-01T13:26:34.852Z,13.70
2022-10-01T13:29:01.752Z,14.00
2022-10-01T13:31:47.186Z,14.30
2022-10-01T13:34:32.892Z,14.60
2022-10-01T13:37:09.554Z,14.60
2022-10-01T13:39:39.484Z,14.60
2022-10-01T13:42:06.775Z,14.80
2022-10-01T13:44:35.107Z,14.70
2022-10-01T13:47:06.046Z,14.60
2022-10-01T13:49:34.371Z,14.40
2022-10-01T13:52:03.056Z,14.60
2022-10-01T13:54:29.638Z,14.30
2022-10-01T13:57:06.710Z,14.30
2022-10-01T13:59:35.840Z,14.30
2022-10-01T14:02:03.171Z,14.40
2022-10-01T14:04:36.123Z,14.60
2022-10-01T14:07:15.644Z,14.50
2022-10-01T14:09:47.707Z,14.60
2022-10-01T14:12:36.538Z,14.70
2022-10-01T14:15:32.258Z,14.70
2022-10-01T14:18:01.273Z,14.70
2022-10-01T14:20:31.327Z,14.60
2022-10-01T14:23:01.112Z,14.60
2022-10-01T14:25:42.960Z,14.70
2022-10-01T14:28:15.776Z,14.60
2022-10-01T14:30:58.394Z,14.60
2022-10-01T14:33:43.954Z,14.50
2022-10-01T14:36:10.563Z,14.60
2022-10-01T14:38:37.201Z,14.60
2022-10-01T14:41:03.842Z,14.60
2022-10-01T14:43:31.010Z,14.60
2022-10-01T14:45:58.963Z,14.70
2022-10-01T14:48:26.588Z,14.50
2022-10-01T14:50:54.966Z,14.60
2022-10-01T14:53:23.050Z,14.70
2022-10-01T14:55:51.156Z,14.70
2022-10-01T14:58:44.150Z,14.70
2022-10-01T15:01:18.248Z,14.70
2022-10-01T15:03:45.632Z,14.80
2022-10-01T15:06:13.996Z,14.80
2022-10-01T15:08:44.632Z,14.80
2022-10-01T15:11:17.204Z,14.70
2022-10-01T15:13:45.284Z,14.60
2022-10-01T15:16:17.006Z,14.50
2022-10-01T15:18:48.280Z,14.30
2022-10-01T15:21:17.741Z,14.30
2022-10-01T15:23:44.563Z,14.30
2022-10-01T15:26:12.511Z,14.30
2022-10-01T15:28:39.228Z,14.20
2022-10-01T15:31:06.643Z,14.20
2022-10-01T15:33:34.986Z,14.10
2022-10-01T15:36:03.261Z,14.00
2022-10-01T15:38:33.888Z,14.10
2022-10-01T15:41:26.700Z,14.10
2022-10-01T15:43:48.911Z,14.10
2022-10-01T15:46:18.759Z,14.10
2022-10-01T15:48:45.751Z,14.00
2022-10-01T15:51:16.580Z,13.80
2022-10-01T15:53:43.629Z,13.80
2022-10-01T15:56:12.204Z,13.80
2022-10-01T15:58:43.176Z,13.80
2022-10-01T16:01:12.152Z,13.90
2022-10-01T16:03:40.379Z,13.80
2022-10-01T16:06:15.815Z,13.80
2022-10-01T16:09:03.679Z,13.70
2022-10-01T16:11:33.867Z,13.70
2022-10-01T16:14:19.300Z,13.70
2022-10-01T16:16:46.027Z,13.70
2022-10-01T16:19:21.740Z,13.60
2022-10-01T16:22:12.668Z,13.60
2022-10-01T16:24:46.588Z,13.60
2022-10-01T16:27:36.369Z,13.60
2022-10-01T16:30:05.781Z,13.50
2022-10-01T16:32:33.165Z,13.60
2022-10-01T16:35:15.330Z,13.60
2022-10-01T16:37:42.029Z,13.60
2022-10-01T16:40:12.743Z,13.60
2022-10-01T16:42:42.079Z,13.60
2022-10-01T16:45:16.085Z,13.50
2022-10-01T16:47:42.749Z,13.60
2022-10-01T16:50:13.713Z,13.60
2022-10-01T16:52:40.337Z,13.50
2022-10-01T16:55:15.009Z,13.50
2022-10-01T16:57:42.506Z,13.40
2022-10-01T17:00:10.112Z,13.40
2022-10-01T17:02:36.878Z,13.30
2022-10-01T17:05:03.590Z,13.30
2022-10-01T17:07:30.185Z,13.30
2022-10-01T17:09:56.757Z,13.30
2022-10-01T17:12:23.467Z,13.50
2022-10-01T17:14:50.822Z,13.30
2022-10-01T17:17:17.395Z,13.30
2022-10-01T17:19:44.047Z,13.20
2022-10-01T17:22:10.695Z,13.30
2022-10-01T17:24:37.499Z,13.30
2022-10-01T17:27:06.883Z,13.30
2022-10-01T17:29:33.597Z,13.30
2022-10-01T17:32:00.344Z,13.40
2022-10-01T17:34:27.040Z,13.30
2022-10-01T17:36:56.455Z,13.40
2022-10-01T17:39:23.103Z,13.40
2022-10-01T17:41:49.698Z,13.40
2022-10-01T17:44:16.308Z,13.50
2022-10-01T17:46:43.100Z,13.40
2022-10-01T17:49:10.352Z,13.40
2022-10-01T17:51:37.008Z,13.40
2022-10-01T17:54:04.653Z,13.30
2022-10-01T17:56:32.795Z,13.30
2022-10-01T17:58:59.839Z,13.30
2022-10-01T18:01:26.581Z,13.30
2022-10-01T18:03:55.436Z,13.20
2022-10-01T18:06:22.651Z,13.30
2022-10-01T18:08:56.914Z,13.30
2022-10-01T18:11:24.955Z,13.20
2022-10-01T18:13:52.463Z,13.30
2022-10-01T18:16:19.671Z,13.30
2022-10-01T18:21:33.543Z,13.20
2022-10-01T18:24:04.219Z,13.20
2022-10-01T18:26:31.481Z,13.20
2022-10-01T18:28:58.286Z,13.20
2022-10-01T18:31:28.785Z,13.20
2022-10-01T18:33:59.982Z,13.20
2022-10-01T18:36:26.669Z,13.20
2022-10-01T18:38:58.834Z,13.20
2022-10-01T18:41:38.777Z,13.20
2022-10-01T18:44:20.100Z,13.10
2022-10-01T18:46:50.427Z,13.10
2022-10-01T18:49:41.132Z,13.10
2022-10-01T18:52:13.926Z,13.10
2022-10-01T18:54:40.512Z,13.00
2022-10-01T18:57:16.293Z,13.10
2022-10-01T18:59:58.066Z,13.10
2022-10-01T19:02:27.548Z,13.10
2022-10-01T19:05:05.330Z,13.10
2022-10-01T19:07:53.959Z,13.10
2022-10-01T19:10:35.913Z,13.20
2022-10-01T19:13:16.056Z,13.10
2022-10-01T19:15:51.744Z,13.10
2022-10-01T19:18:18.447Z,13.10
2022-10-01T19:20:49.684Z,13.00
2022-10-01T19:23:33.949Z,13.00
2022-10-01T19:26:23.991Z,13.00
2022-10-01T19:28:56.625Z,13.00
2022-10-01T19:31:29.584Z,12.90
2022-10-01T19:34:00.413Z,12.70
2022-10-01T19:36:34.236Z,12.70
2022-10-01T19:39:04.344Z,12.60
2022-10-01T19:41:36.709Z,12.60
2022-10-01T19:44:08.700Z,12.60
2022-10-01T19:46:36.176Z,12.50
2022-10-01T19:49:08.802Z,12.50
2022-10-01T19:51:53.949Z,12.60
2022-10-01T19:54:22.271Z,12.60
2022-10-01T19:56:51.869Z,12.60
2022-10-01T19:59:19.895Z,12.60
2022-10-01T20:02:00.221Z,12.50
2022-10-01T20:04:32.281Z,12.50
2022-10-01T20:07:02.714Z,12.50
2022-10-01T20:09:36.428Z,12.50
2022-10-01T20:12:09.168Z,12.50
2022-10-01T20:14:54.372Z,12.40
2022-10-01T20:17:27.531Z,12.40
2022-10-01T20:20:13.251Z,12.40
2022-10-01T20:22:40.198Z,12.40
2022-10-01T20:25:23.996Z,12.40
2022-10-01T20:27:50.587Z,12.40
2022-10-01T20:30:20.136Z,12.40
2022-10-01T20:32:55.596Z,12.40
2022-10-01T20:35:34.209Z,12.30
2022-10-01T20:38:00.818Z,12.40
2022-10-01T20:40:30.065Z,12.40
2022-10-01T20:43:01.369Z,12.40
2022-10-01T20:45:29.162Z,12.40
2022-10-01T20:48:03.963Z,12.40
2022-10-01T20:50:45.392Z,12.40
2022-10-01T20:53:22.108Z,12.50
2022-10-01T20:55:51.673Z,12.50
2022-10-01T20:58:21.977Z,12.50
2022-10-01T21:00:49.632Z,12.50
2022-10-01T21:03:30.066Z,12.60
2022-10-01T21:05:59.536Z,12.60
2022-10-01T21:08:41.685Z,12.60
2022-10-01T21:11:14.441Z,12.70
2022-10-01T21:13:47.793Z,12.60
2022-10-01T21:16:37.330Z,12.60
2022-10-01T21:19:07.960Z,12.60
2022-10-01T21:21:55.476Z,12.60
2022-10-01T21:24:40.947Z,12.60
2022-10-01T21:27:10.406Z,12.70
2022-10-01T21:29:39.831Z,12.70
2022-10-01T21:32:18.270Z,12.70
2022-10-01T21:34:59.971Z,12.60
2022-10-01T21:37:49.318Z,12.60
2022-10-01T21:40:15.976Z,12.70
2022-10-01T21:42:52.327Z,12.70
2022-10-01T21:45:30.174Z,12.70
2022-10-01T21:48:03.283Z,12.70
2022-10-01T21:50:48.571Z,12.80
2022-10-01T21:53:33.789Z,12.70
2022-10-01T21:56:19.261Z,12.80
2022-10-01T21:58:51.882Z,12.80
2022-10-01T22:01:29.482Z,12.80
2022-10-01T22:03:59.161Z,12.90
2022-10-01T22:06:36.408Z,12.90
2022-10-01T22:09:03.160Z,12.90
2022-10-01T22:11:33.399Z,12.90
2022-10-01T22:14:02.195Z,12.80
2022-10-01T22:16:32.545Z,12.70
2022-10-01T22:19:09.615Z,12.60
2022-10-01T22:21:47.057Z,12.70
2022-10-01T22:24:15.697Z,12.60
2022-10-01T22:26:44.935Z,12.70
2022-10-01T22:29:16.079Z,12.60
2022-10-01T22:31:43.550Z,12.60
2022-10-01T22:34:15.958Z,12.70
2022-10-01T22:36:46.087Z,12.80
2022-10-01T22:39:16.238Z,12.90
2022-10-01T22:41:47.725Z,12.80
2022-10-01T22:44:19.026Z,12.90
2022-10-01T22:46:59.353Z,12.80
2022-10-01T22:49:44.831Z,12.70
2022-10-01T22:52:11.378Z,12.70
2022-10-01T22:54:56.837Z,12.60
2022-10-01T22:57:43.021Z,12.70
2022-10-01T23:00:11.308Z,12.80
2022-10-01T23:02:39.747Z,12.80
2022-10-01T23:05:24.609Z,12.70
2022-10-01T23:07:58.125Z,12.60
2022-10-01T23:10:47.432Z,12.60
2022-10-01T23:13:28.610Z,12.40
2022-10-01T23:16:08.617Z,12.50
2022-10-01T23:18:35.828Z,12.60
2022-10-01T23:21:17.505Z,12.60
2022-10-01T23:23:51.747Z,12.50
2022-10-01T23:26:22.187Z,12.60
2022-10-01T23:28:54.175Z,12.60
2022-10-01T23:31:39.373Z,12.50
2022-10-01T23:34:24.098Z,12.50
2022-10-01T23:37:02.175Z,12.50
2022-10-01T23:39:34.540Z,12.50
2022-10-01T23:42:13.893Z,12.50
2022-10-01T23:44:49.863Z,12.50
2022-10-01T23:47:20.035Z,12.40
2022-10-01T23:49:57.564Z,12.40
2022-10-01T23:52:24.116Z,12.40
2022-10-01T23:54:56.575Z,12.30
2022-10-01T23:57:32.426Z,12.30
